createdAt,value
2023-01-01T00:00:11.911Z,13.60
2023-01-01T00:00:43.860Z,13.60
2023-01-01T00:01:18.922Z,13.60
2023-01-01T00:01:50.749Z,13.60
2023-01-01T00:02:23.586Z,13.50
2023-01-01T00:02:56.348Z,13.50
2023-01-01T00:03:29.105Z,13.50
2023-01-01T00:04:01.157Z,13.50
2023-01-01T00:04:34.472Z,13.60
2023-01-01T00:05:07.182Z,13.50
2023-01-01T00:05:39.137Z,13.50
2023-01-01T00:06:13.929Z,13.50
2023-01-01T00:06:46.097Z,13.40
2023-01-01T00:07:17.963Z,13.40
2023-01-01T00:07:50.713Z,13.40
2023-01-01T00:08:22.547Z,13.40
2023-01-01T00:09:09.222Z,13.40
2023-01-01T00:10:00.822Z,13.50
2023-01-01T00:10:33.662Z,13.40
2023-01-01T00:11:07.063Z,13.40
2023-01-01T00:11:38.868Z,13.40
2023-01-01T00:12:11.666Z,13.40
2023-01-01T00:12:43.434Z,13.40
2023-01-01T00:13:16.292Z,13.40
2023-01-01T00:13:50.150Z,13.40
2023-01-01T00:14:22.134Z,13.50
2023-01-01T00:14:54.905Z,13.40
2023-01-01T00:15:28.138Z,13.40
2023-01-01T00:16:05.915Z,13.40
2023-01-01T00:16:37.812Z,13.50
2023-01-01T00:17:10.909Z,13.40
2023-01-01T00:17:42.689Z,13.50
2023-01-01T00:18:15.476Z,13.50
2023-01-01T00:18:47.245Z,13.50
2023-01-01T00:19:20.000Z,13.50
2023-01-01T00:19:51.805Z,13.50
2023-01-01T00:20:26.649Z,13.40
2023-01-01T00:21:03.134Z,13.40
2023-01-01T00:21:35.931Z,13.40
2023-01-01T00:22:43.798Z,13.40
2023-01-01T00:23:00.426Z,13.30
2023-01-01T00:23:32.619Z,13.30
2023-01-01T00:24:05.134Z,13.30
2023-01-01T00:24:37.907Z,13.30
2023-01-01T00:25:13.958Z,13.20
2023-01-01T00:25:45.759Z,13.20
2023-01-01T00:26:19.372Z,13.20
2023-01-01T00:26:51.164Z,13.20
2023-01-01T00:27:22.959Z,13.20
2023-01-01T00:27:55.769Z,13.20
2023-01-01T00:28:27.855Z,13.10
2023-01-01T00:29:01.158Z,13.20
2023-01-01T00:29:33.102Z,13.10
2023-01-01T00:30:06.863Z,13.10
2023-01-01T00:30:41.692Z,13.10
2023-01-01T00:31:23.823Z,13.10
2023-01-01T00:31:55.716Z,13.10
2023-01-01T00:32:27.607Z,13.10
2023-01-01T00:33:00.668Z,13.10
2023-01-01T00:33:32.460Z,13.00
2023-01-01T00:34:05.241Z,13.00
2023-01-01T00:34:37.050Z,13.00
2023-01-01T00:35:09.794Z,13.00
2023-01-01T00:35:42.582Z,13.00
2023-01-01T00:36:16.054Z,13.00
2023-01-01T00:36:48.844Z,13.00
2023-01-01T00:37:20.658Z,13.10
2023-01-01T00:37:53.162Z,13.00
2023-01-01T00:38:25.893Z,13.00
2023-01-01T00:38:57.735Z,13.00
2023-01-01T00:39:30.530Z,13.00
2023-01-01T00:40:02.326Z,13.00
2023-01-01T00:40:36.475Z,13.00
2023-01-01T00:41:08.519Z,13.00
2023-01-01T00:41:41.316Z,13.00
2023-01-01T00:42:13.105Z,13.00
2023-01-01T00:42:44.937Z,12.90
2023-01-01T00:43:17.681Z,12.90
2023-01-01T00:43:49.536Z,13.00
2023-01-01T00:44:21.384Z,12.90
2023-01-01T00:44:54.183Z,12.90
2023-01-01T00:45:26.038Z,12.90
2023-01-01T00:45:58.128Z,12.90
2023-01-01T00:46:30.973Z,12.80
2023-01-01T00:47:02.901Z,12.80
2023-01-01T00:47:34.825Z,12.80
2023-01-01T00:48:07.944Z,12.80
2023-01-01T00:48:40.131Z,12.80
2023-01-01T00:49:12.940Z,12.80
2023-01-01T00:49:44.755Z,12.80
2023-01-01T00:50:16.641Z,12.80
2023-01-01T00:50:49.653Z,12.80
2023-01-01T00:51:21.496Z,12.80
2023-01-01T00:51:53.277Z,12.80
2023-01-01T00:52:26.106Z,12.80
2023-01-01T00:52:57.955Z,12.80
2023-01-01T00:53:29.887Z,12.80
2023-01-01T00:54:02.607Z,12.80
2023-01-01T00:54:34.415Z,12.80
2023-01-01T00:55:07.123Z,12.80
2023-01-01T00:55:42.457Z,12.80
2023-01-01T00:56:14.302Z,12.80
2023-01-01T00:56:46.120Z,12.80
2023-01-01T00:57:18.901Z,12.90
2023-01-01T00:57:50.733Z,12.90
2023-01-01T00:58:24.615Z,12.90
2023-01-01T00:59:01.220Z,12.90
2023-01-01T00:59:33.855Z,12.90
2023-01-01T01:00:08.059Z,12.90
2023-01-01T01:00:39.897Z,12.80
2023-01-01T01:01:11.830Z,12.80
2023-01-01T01:01:44.801Z,12.80
2023-01-01T01:02:16.935Z,12.80
2023-01-01T01:02:48.866Z,12.80
2023-01-01T01:03:31.021Z,12.80
2023-01-01T01:04:02.974Z,12.80
2023-01-01T01:04:34.763Z,12.80
2023-01-01T01:05:08.787Z,12.80
2023-01-01T01:05:40.588Z,12.80
2023-01-01T01:06:15.024Z,12.80
2023-01-01T01:06:47.809Z,12.80
2023-01-01T01:07:19.637Z,12.80
2023-01-01T01:07:51.423Z,12.80
2023-01-01T01:08:30.491Z,12.70
2023-01-01T01:09:03.396Z,12.70
2023-01-01T01:09:36.156Z,12.70
2023-01-01T01:10:09.474Z,12.80
2023-01-01T01:10:42.674Z,12.80
2023-01-01T01:11:16.867Z,12.80
2023-01-01T01:11:48.738Z,12.80
2023-01-01T01:12:20.540Z,12.80
2023-01-01T01:12:54.024Z,12.90
2023-01-01T01:13:26.159Z,12.80
2023-01-01T01:13:57.982Z,12.80
2023-01-01T01:14:30.774Z,12.80
2023-01-01T01:15:03.093Z,12.80
2023-01-01T01:15:34.898Z,12.80
2023-01-01T01:17:29.562Z,12.80
2023-01-01T01:18:01.452Z,12.80
2023-01-01T01:18:33.301Z,12.90
2023-01-01T01:19:07.230Z,12.80
2023-01-01T01:19:39.126Z,12.80
2023-01-01T01:20:11.645Z,12.90
2023-01-01T01:20:51.750Z,12.90
2023-01-01T01:21:24.425Z,12.90
2023-01-01T01:21:57.281Z,12.90
2023-01-01T01:22:29.421Z,12.90
2023-01-01T01:23:01.400Z,12.90
2023-01-01T01:23:35.193Z,12.90
2023-01-01T01:24:07.770Z,13.00
2023-01-01T01:24:39.658Z,13.00
2023-01-01T01:25:12.594Z,13.00
2023-01-01T01:25:46.141Z,13.00
2023-01-01T01:26:20.541Z,13.00
2023-01-01T01:26:54.290Z,13.00
2023-01-01T01:27:26.235Z,13.00
2023-01-01T01:27:58.053Z,13.00
2023-01-01T01:28:31.026Z,13.00
2023-01-01T01:29:03.427Z,13.00
2023-01-01T01:29:35.274Z,13.00
2023-01-01T01:30:09.571Z,13.00
2023-01-01T01:30:41.765Z,13.00
2023-01-01T01:31:13.866Z,13.00
2023-01-01T01:31:46.816Z,13.00
2023-01-01T01:32:18.902Z,13.00
2023-01-01T01:32:50.731Z,13.00
2023-01-01T01:33:23.587Z,13.00
2023-01-01T01:33:55.831Z,13.00
2023-01-01T01:34:28.490Z,13.00
2023-01-01T01:35:01.434Z,13.00
2023-01-01T01:35:33.449Z,13.00
2023-01-01T01:36:06.365Z,13.00
2023-01-01T01:36:39.173Z,13.00
2023-01-01T01:37:11.918Z,13.00
2023-01-01T01:37:43.726Z,13.00
2023-01-01T01:38:16.487Z,13.00
2023-01-01T01:38:48.318Z,13.00
2023-01-01T01:39:21.222Z,13.00
2023-01-01T01:39:54.142Z,13.00
2023-01-01T01:40:27.343Z,13.00
2023-01-01T01:41:00.521Z,13.00
2023-01-01T01:41:33.310Z,13.10
2023-01-01T01:42:05.732Z,13.00
2023-01-01T01:42:37.599Z,13.00
2023-01-01T01:43:19.361Z,13.10
2023-01-01T01:43:55.144Z,13.00
2023-01-01T01:44:51.917Z,13.00
2023-01-01T01:45:28.341Z,13.00
2023-01-01T01:46:11.479Z,13.00
2023-01-01T01:46:45.319Z,13.00
2023-01-01T01:47:20.614Z,13.00
2023-01-01T01:47:56.185Z,13.00
2023-01-01T01:48:28.899Z,13.00
2023-01-01T01:49:05.966Z,13.00
2023-01-01T01:49:37.872Z,13.00
2023-01-01T01:50:13.749Z,13.00
2023-01-01T01:50:49.977Z,13.10
2023-01-01T01:51:26.494Z,13.10
2023-01-01T01:52:00.645Z,13.10
2023-01-01T01:52:35.690Z,13.10
2023-01-01T01:53:12.626Z,13.10
2023-01-01T01:53:49.419Z,13.10
2023-01-01T01:54:28.250Z,13.10
2023-01-01T01:55:02.107Z,13.10
2023-01-01T01:55:37.808Z,13.10
2023-01-01T01:56:14.566Z,13.10
2023-01-01T01:56:50.985Z,13.10
2023-01-01T01:57:24.108Z,13.10
2023-01-01T01:57:56.100Z,13.10
2023-01-01T01:58:31.008Z,13.10
2023-01-01T01:59:03.195Z,13.10
2023-01-01T01:59:38.428Z,13.10
2023-01-01T02:00:12.658Z,13.10
2023-01-01T02:00:44.521Z,13.10
2023-01-01T02:01:16.419Z,13.10
2023-01-01T02:01:49.360Z,13.10
2023-01-01T02:02:30.098Z,13.10
2023-01-01T02:03:06.332Z,13.10
2023-01-01T02:03:43.521Z,13.00
2023-01-01T02:04:16.825Z,13.00
2023-01-01T02:04:49.172Z,13.00
2023-01-01T02:05:23.589Z,13.00
2023-01-01T02:05:55.683Z,13.00
2023-01-01T02:06:29.007Z,13.00
2023-01-01T02:07:02.098Z,13.00
2023-01-01T02:07:37.770Z,13.00
2023-01-01T02:08:12.064Z,13.00
2023-01-01T02:08:45.131Z,13.00
2023-01-01T02:09:17.453Z,13.00
2023-01-01T02:09:49.612Z,13.00
2023-01-01T02:10:22.741Z,13.00
2023-01-01T02:10:54.620Z,13.00
2023-01-01T02:11:27.759Z,13.00
2023-01-01T02:12:00.771Z,13.00
2023-01-01T02:12:32.809Z,13.00
2023-01-01T02:13:04.645Z,13.00
2023-01-01T02:13:38.860Z,13.00
2023-01-01T02:14:10.815Z,13.00
2023-01-01T02:14:42.757Z,13.00
2023-01-01T02:15:16.125Z,13.00
2023-01-01T02:15:52.997Z,13.00
2023-01-01T02:16:32.938Z,13.00
2023-01-01T02:17:10.771Z,13.00
2023-01-01T02:17:53.607Z,13.00
2023-01-01T02:18:30.712Z,13.00
2023-01-01T02:19:11.581Z,13.00
2023-01-01T02:19:53.465Z,13.00
2023-01-01T02:20:35.128Z,13.00
2023-01-01T02:21:10.567Z,13.10
2023-01-01T02:21:57.360Z,13.00
2023-01-01T02:22:34.313Z,13.10
2023-01-01T02:23:42.559Z,13.10
2023-01-01T02:24:36.726Z,13.10
2023-01-01T02:25:17.033Z,13.00
2023-01-01T02:26:00.474Z,13.00
2023-01-01T02:26:45.918Z,13.00
2023-01-01T02:27:24.661Z,12.90
2023-01-01T02:28:07.180Z,12.90
2023-01-01T02:28:55.539Z,12.90
2023-01-01T02:29:37.956Z,12.90
2023-01-01T02:30:12.922Z,12.90
2023-01-01T02:30:46.834Z,12.90
2023-01-01T02:31:24.432Z,12.90
2023-01-01T02:32:01.777Z,12.90
2023-01-01T02:32:38.090Z,12.90
2023-01-01T02:33:17.078Z,12.90
2023-01-01T02:33:51.666Z,12.90
2023-01-01T02:34:27.067Z,12.90
2023-01-01T02:35:23.764Z,13.00
2023-01-01T02:35:59.503Z,13.00
2023-01-01T02:36:36.532Z,12.90
2023-01-01T02:37:12.568Z,12.90
2023-01-01T02:37:44.719Z,12.90
2023-01-01T02:38:19.983Z,12.90
2023-01-01T02:38:56.034Z,12.90
2023-01-01T02:39:32.083Z,12.90
2023-01-01T02:40:05.725Z,12.90
2023-01-01T02:40:42.603Z,12.90
2023-01-01T02:41:19.828Z,12.90
2023-01-01T02:41:55.206Z,12.90
2023-01-01T02:42:29.050Z,12.90
2023-01-01T02:43:01.678Z,12.90
2023-01-01T02:43:34.523Z,12.90
2023-01-01T02:44:07.866Z,12.90
2023-01-01T02:44:42.622Z,12.90
2023-01-01T02:45:15.379Z,12.90
2023-01-01T02:45:47.464Z,12.90
2023-01-01T02:46:51.250Z,13.00
2023-01-01T02:47:23.223Z,13.00
2023-01-01T02:47:55.040Z,13.00
2023-01-01T02:48:42.546Z,13.00
2023-01-01T02:49:14.427Z,13.00
2023-01-01T02:49:56.036Z,13.00
2023-01-01T02:50:29.621Z,13.00
2023-01-01T02:51:09.397Z,13.00
2023-01-01T02:51:55.861Z,13.00
2023-01-01T02:52:51.936Z,13.00
2023-01-01T02:53:30.362Z,13.00
2023-01-01T02:54:08.848Z,13.00
2023-01-01T02:54:47.440Z,13.00
2023-01-01T02:55:32.295Z,13.00
2023-01-01T02:56:14.615Z,13.00
2023-01-01T02:56:51.678Z,13.00
2023-01-01T02:57:32.259Z,13.00
2023-01-01T02:58:30.356Z,13.00
2023-01-01T02:59:33.979Z,13.00
2023-01-01T03:00:24.222Z,13.00
2023-01-01T03:01:03.790Z,13.00
2023-01-01T03:01:45.554Z,13.00
2023-01-01T03:02:30.862Z,13.00
2023-01-01T03:03:17.863Z,13.00
2023-01-01T03:03:57.560Z,13.00
2023-01-01T03:04:36.279Z,13.00
2023-01-01T03:05:15.220Z,13.00
2023-01-01T03:06:14.659Z,13.00
2023-01-01T03:06:54.956Z,13.00
2023-01-01T03:07:36.019Z,13.00
2023-01-01T03:08:14.443Z,13.00
2023-01-01T03:08:51.393Z,13.00
2023-01-01T03:09:28.709Z,13.00
2023-01-01T03:10:04.912Z,13.00
2023-01-01T03:10:45.522Z,13.00
2023-01-01T03:11:22.086Z,13.00
2023-01-01T03:11:59.140Z,13.00
2023-01-01T03:12:39.694Z,13.00
2023-01-01T03:13:20.581Z,13.00
2023-01-01T03:14:02.433Z,13.00
2023-01-01T03:14:42.862Z,12.90
2023-01-01T03:15:23.047Z,12.90
2023-01-01T03:16:00.405Z,12.90
2023-01-01T03:16:37.176Z,12.90
2023-01-01T03:17:19.493Z,12.80
2023-01-01T03:17:58.351Z,12.80
2023-01-01T03:18:38.010Z,12.80
2023-01-01T03:19:16.452Z,12.80
2023-01-01T03:19:50.856Z,12.80
2023-01-01T03:20:28.814Z,12.80
2023-01-01T03:21:03.578Z,12.80
2023-01-01T03:21:35.861Z,12.80
2023-01-01T03:22:10.826Z,12.80
2023-01-01T03:23:20.077Z,12.80
2023-01-01T03:23:54.691Z,12.80
2023-01-01T03:24:30.181Z,12.80
2023-01-01T03:25:08.444Z,12.80
2023-01-01T03:25:45.726Z,12.80
2023-01-01T03:26:19.253Z,12.80
2023-01-01T03:26:56.232Z,12.80
2023-01-01T03:27:32.283Z,12.80
2023-01-01T03:28:09.394Z,12.80
2023-01-01T03:28:49.198Z,12.80
2023-01-01T03:29:23.154Z,12.80
2023-01-01T03:30:00.927Z,12.80
2023-01-01T03:30:36.142Z,12.80
2023-01-01T03:31:08.860Z,12.80
2023-01-01T03:31:43.832Z,12.70
2023-01-01T03:32:21.433Z,12.70
2023-01-01T03:33:03.740Z,12.70
2023-01-01T03:33:39.070Z,12.70
2023-01-01T03:34:15.858Z,12.70
2023-01-01T03:34:53.513Z,12.70
2023-01-01T03:35:30.162Z,12.60
2023-01-01T03:36:06.195Z,12.60
2023-01-01T03:36:43.126Z,12.60
2023-01-01T03:37:20.441Z,12.60
2023-01-01T03:37:55.677Z,12.60
2023-01-01T03:38:33.547Z,12.60
2023-01-01T03:39:11.124Z,12.60
2023-01-01T03:39:48.295Z,12.50
2023-01-01T03:40:21.700Z,12.50
2023-01-01T03:40:58.058Z,12.50
2023-01-01T03:41:37.122Z,12.50
2023-01-01T03:42:15.804Z,12.50
2023-01-01T03:42:51.642Z,12.50
2023-01-01T03:43:33.391Z,12.50
2023-01-01T03:44:10.770Z,12.50
2023-01-01T03:44:47.728Z,12.50
2023-01-01T03:45:26.410Z,12.50
2023-01-01T03:46:01.638Z,12.50
2023-01-01T03:46:36.833Z,12.50
2023-01-01T03:47:08.777Z,12.50
2023-01-01T03:47:40.613Z,12.40
2023-01-01T03:48:13.662Z,12.40
2023-01-01T03:49:03.068Z,12.40
2023-01-01T03:49:37.454Z,12.40
2023-01-01T03:50:10.103Z,12.40
2023-01-01T03:50:53.846Z,12.40
2023-01-01T03:51:34.091Z,12.40
2023-01-01T03:52:18.757Z,12.40
2023-01-01T03:52:58.611Z,12.40
2023-01-01T03:53:39.416Z,12.40
2023-01-01T03:54:18.707Z,12.40
2023-01-01T03:55:00.725Z,12.40
2023-01-01T03:55:37.020Z,12.40
2023-01-01T03:56:17.613Z,12.40
2023-01-01T03:56:59.296Z,12.30
2023-01-01T03:57:41.295Z,12.30
2023-01-01T03:58:23.574Z,12.30
2023-01-01T03:59:02.134Z,12.30
2023-01-01T03:59:40.837Z,12.30
2023-01-01T04:00:17.204Z,12.20
2023-01-01T04:00:55.332Z,12.20
2023-01-01T04:01:32.921Z,12.20
2023-01-01T04:02:09.521Z,12.20
2023-01-01T04:02:48.195Z,12.20
2023-01-01T04:03:23.607Z,12.20
2023-01-01T04:03:57.284Z,12.20
2023-01-01T04:04:29.904Z,12.10
2023-01-01T04:05:07.356Z,12.10
2023-01-01T04:05:41.581Z,12.10
2023-01-01T04:06:14.374Z,12.20
2023-01-01T04:06:46.806Z,12.20
2023-01-01T04:07:18.973Z,12.10
2023-01-01T04:07:52.982Z,12.20
2023-01-01T04:08:25.399Z,12.10
2023-01-01T04:08:59.496Z,12.10
2023-01-01T04:09:34.859Z,12.10
2023-01-01T04:10:17.255Z,12.10
2023-01-01T04:10:54.162Z,12.10
2023-01-01T04:11:48.716Z,12.10
2023-01-01T04:12:21.542Z,12.20
2023-01-01T04:12:57.161Z,12.20
2023-01-01T04:13:29.058Z,12.10
2023-01-01T04:14:00.852Z,12.10
2023-01-01T04:14:34.994Z,12.10
2023-01-01T04:15:07.671Z,12.10
2023-01-01T04:15:39.623Z,12.10
2023-01-01T04:16:13.846Z,12.10
2023-01-01T04:16:45.695Z,12.10
2023-01-01T04:17:18.537Z,12.10
2023-01-01T04:17:51.045Z,12.10
2023-01-01T04:18:23.876Z,12.20
2023-01-01T04:18:55.668Z,12.20
2023-01-01T04:19:28.120Z,12.20
2023-01-01T04:20:00.947Z,12.20
2023-01-01T04:20:32.800Z,12.20
2023-01-01T04:21:04.742Z,12.20
2023-01-01T04:21:37.514Z,12.20
2023-01-01T04:22:09.619Z,12.20
2023-01-01T04:22:41.451Z,12.20
2023-01-01T04:23:14.233Z,12.20
2023-01-01T04:23:46.063Z,12.20
2023-01-01T04:24:17.987Z,12.10
2023-01-01T04:24:50.802Z,12.10
2023-01-01T04:25:22.684Z,12.10
2023-01-01T04:25:54.479Z,12.10
2023-01-01T04:26:27.291Z,12.10
2023-01-01T04:26:59.130Z,12.10
2023-01-01T04:27:30.955Z,12.10
2023-01-01T04:28:04.212Z,12.10
2023-01-01T04:28:35.995Z,12.10
2023-01-01T04:29:07.973Z,12.10
2023-01-01T04:29:41.748Z,12.10
2023-01-01T04:30:14.817Z,12.10
2023-01-01T04:30:46.639Z,12.10
2023-01-01T04:31:20.737Z,12.20
2023-01-01T04:31:52.636Z,12.20
2023-01-01T04:32:25.741Z,12.20
2023-01-01T04:32:57.585Z,12.20
2023-01-01T04:33:29.540Z,12.20
2023-01-01T04:34:03.018Z,12.20
2023-01-01T04:34:34.874Z,12.20
2023-01-01T04:35:08.820Z,12.20
2023-01-01T04:35:40.714Z,12.20
2023-01-01T04:36:12.595Z,12.20
2023-01-01T04:36:45.541Z,12.20
2023-01-01T04:37:18.424Z,12.30
2023-01-01T04:37:50.216Z,12.30
2023-01-01T04:38:22.010Z,12.20
2023-01-01T04:38:53.896Z,12.30
2023-01-01T04:39:26.688Z,12.30
2023-01-01T04:39:58.488Z,12.30
2023-01-01T04:40:30.413Z,12.30
2023-01-01T04:41:04.236Z,12.40
2023-01-01T04:41:36.095Z,12.40
2023-01-01T04:42:07.923Z,12.40
2023-01-01T04:42:40.888Z,12.40
2023-01-01T04:43:12.723Z,12.40
2023-01-01T04:43:47.154Z,12.40
2023-01-01T04:44:20.180Z,12.30
2023-01-01T04:44:52.000Z,12.30
2023-01-01T04:45:23.838Z,12.30
2023-01-01T04:45:57.653Z,12.30
2023-01-01T04:46:30.832Z,12.40
2023-01-01T04:47:03.677Z,12.40
2023-01-01T04:47:35.541Z,12.40
2023-01-01T04:48:07.526Z,12.40
2023-01-01T04:48:40.317Z,12.40
2023-01-01T04:49:12.181Z,12.40
2023-01-01T04:49:44.987Z,12.40
2023-01-01T04:50:16.869Z,12.40
2023-01-01T04:50:55.099Z,12.40
2023-01-01T04:51:26.889Z,12.40
2023-01-01T04:51:59.744Z,12.40
2023-01-01T04:52:31.577Z,12.40
2023-01-01T04:53:03.369Z,12.40
2023-01-01T04:53:36.007Z,12.40
2023-01-01T04:54:09.124Z,12.40
2023-01-01T04:54:40.959Z,12.40
2023-01-01T04:55:12.806Z,12.40
2023-01-01T04:55:45.574Z,12.40
2023-01-01T04:56:19.171Z,12.40
2023-01-01T04:56:51.934Z,12.40
2023-01-01T04:57:23.817Z,12.40
2023-01-01T04:57:56.590Z,12.40
2023-01-01T04:58:28.938Z,12.50
2023-01-01T04:59:00.793Z,12.50
2023-01-01T04:59:33.571Z,12.50
2023-01-01T05:00:06.583Z,12.50
2023-01-01T05:00:38.469Z,12.50
2023-01-01T05:01:16.170Z,12.50
2023-01-01T05:01:50.639Z,12.50
2023-01-01T05:02:22.873Z,12.40
2023-01-01T05:02:54.799Z,12.40
2023-01-01T05:03:28.015Z,12.40
2023-01-01T05:04:00.243Z,12.40
2023-01-01T05:04:32.088Z,12.40
2023-01-01T05:05:05.396Z,12.40
2023-01-01T05:05:37.203Z,12.40
2023-01-01T05:06:10.790Z,12.40
2023-01-01T05:06:43.738Z,12.40
2023-01-01T05:07:15.565Z,12.30
2023-01-01T05:07:47.399Z,12.30
2023-01-01T05:08:20.169Z,12.30
2023-01-01T05:08:54.620Z,12.30
2023-01-01T05:09:27.402Z,12.30
2023-01-01T05:09:59.192Z,12.30
2023-01-01T05:10:31.049Z,12.30
2023-01-01T05:11:04.172Z,12.30
2023-01-01T05:11:37.360Z,12.30
2023-01-01T05:12:09.196Z,12.30
2023-01-01T05:12:41.262Z,12.30
2023-01-01T05:13:14.072Z,12.30
2023-01-01T05:13:48.556Z,12.30
2023-01-01T05:14:21.331Z,12.30
2023-01-01T05:14:53.115Z,12.30
2023-01-01T05:15:24.997Z,12.30
2023-01-01T05:15:57.195Z,12.30
2023-01-01T05:16:31.811Z,12.30
2023-01-01T05:17:04.999Z,12.30
2023-01-01T05:17:36.866Z,12.30
2023-01-01T05:18:09.613Z,12.30
2023-01-01T05:18:42.316Z,12.30
2023-01-01T05:19:14.093Z,12.20
2023-01-01T05:19:46.919Z,12.20
2023-01-01T05:20:18.762Z,12.20
2023-01-01T05:20:50.609Z,12.20
2023-01-01T05:21:26.765Z,12.20
2023-01-01T05:21:58.635Z,12.20
2023-01-01T05:22:30.472Z,12.20
2023-01-01T05:23:03.224Z,12.20
2023-01-01T05:23:35.372Z,12.20
2023-01-01T05:24:09.349Z,12.20
2023-01-01T05:24:42.098Z,12.20
2023-01-01T05:25:13.949Z,12.10
2023-01-01T05:25:45.735Z,12.20
2023-01-01T05:26:19.929Z,12.20
2023-01-01T05:26:53.040Z,12.20
2023-01-01T05:27:24.833Z,12.20
2023-01-01T05:27:57.628Z,12.20
2023-01-01T05:28:29.598Z,12.20
2023-01-01T05:29:01.969Z,12.20
2023-01-01T05:29:34.750Z,12.20
2023-01-01T05:30:07.814Z,12.20
2023-01-01T05:30:40.427Z,12.20
2023-01-01T05:31:15.323Z,12.20
2023-01-01T05:31:47.271Z,12.20
2023-01-01T05:32:20.496Z,12.20
2023-01-01T05:32:53.297Z,12.20
2023-01-01T05:33:25.123Z,12.20
2023-01-01T05:35:01.043Z,12.10
2023-01-01T05:35:32.873Z,12.10
2023-01-01T05:36:06.366Z,12.10
2023-01-01T05:36:39.565Z,12.10
2023-01-01T05:37:11.431Z,12.10
2023-01-01T05:37:43.253Z,12.10
2023-01-01T05:38:15.031Z,12.10
2023-01-01T05:38:48.775Z,12.10
2023-01-01T05:39:20.597Z,12.10
2023-01-01T05:39:52.400Z,12.10
2023-01-01T05:40:25.247Z,12.10
2023-01-01T05:40:57.288Z,12.10
2023-01-01T05:41:31.047Z,12.10
2023-01-01T05:42:04.128Z,12.10
2023-01-01T05:42:36.026Z,12.10
2023-01-01T05:43:08.046Z,12.10
2023-01-01T05:43:40.827Z,12.10
2023-01-01T05:44:12.680Z,12.10
2023-01-01T05:44:45.506Z,12.00
2023-01-01T05:45:17.314Z,12.00
2023-01-01T05:45:49.186Z,12.00
2023-01-01T05:46:23.702Z,12.00
2023-01-01T05:46:55.480Z,12.00
2023-01-01T05:47:30.010Z,12.10
2023-01-01T05:48:04.123Z,12.10
2023-01-01T05:48:36.455Z,12.10
2023-01-01T05:49:11.099Z,12.10
2023-01-01T05:49:43.841Z,12.10
2023-01-01T05:50:15.769Z,12.10
2023-01-01T05:50:47.546Z,12.10
2023-01-01T05:51:22.789Z,12.10
2023-01-01T05:51:54.706Z,12.10
2023-01-01T05:52:27.195Z,12.10
2023-01-01T05:53:00.006Z,12.10
2023-01-01T05:53:32.186Z,12.10
2023-01-01T05:54:04.433Z,12.10
2023-01-01T05:54:37.270Z,12.00
2023-01-01T05:55:09.366Z,12.00
2023-01-01T05:55:41.163Z,12.00
2023-01-01T05:56:15.308Z,12.10
2023-01-01T05:56:47.095Z,12.10
2023-01-01T05:57:18.903Z,12.10
2023-01-01T05:57:51.682Z,12.10
2023-01-01T05:58:23.607Z,12.10
2023-01-01T05:58:55.836Z,12.10
2023-01-01T05:59:28.578Z,12.10
2023-01-01T06:00:00.431Z,12.10
2023-01-01T06:00:33.244Z,12.10
2023-01-01T06:01:10.825Z,12.10
2023-01-01T06:01:45.866Z,12.00
2023-01-01T06:02:19.027Z,12.00
2023-01-01T06:02:52.336Z,12.00
2023-01-01T06:03:24.257Z,12.00
2023-01-01T06:03:58.129Z,12.00
2023-01-01T06:04:30.021Z,12.00
2023-01-01T06:05:01.865Z,12.00
2023-01-01T06:05:36.364Z,12.00
2023-01-01T06:06:10.316Z,12.00
2023-01-01T06:06:42.423Z,12.00
2023-01-01T06:07:15.349Z,12.00
2023-01-01T06:07:48.742Z,12.00
2023-01-01T06:08:20.737Z,12.00
2023-01-01T06:08:55.105Z,12.00
2023-01-01T06:09:28.090Z,11.90
2023-01-01T06:09:59.919Z,11.90
2023-01-01T06:10:32.741Z,11.90
2023-01-01T06:11:05.990Z,12.00
2023-01-01T06:11:37.852Z,12.00
2023-01-01T06:12:10.563Z,12.00
2023-01-01T06:12:42.382Z,11.90
2023-01-01T06:13:14.207Z,11.90
2023-01-01T06:13:47.300Z,11.90
2023-01-01T06:14:19.087Z,12.00
2023-01-01T06:14:50.897Z,12.00
2023-01-01T06:15:23.627Z,12.00
2023-01-01T06:15:56.008Z,12.00
2023-01-01T06:16:29.429Z,12.00
2023-01-01T06:17:02.334Z,12.00
2023-01-01T06:17:34.244Z,12.00
2023-01-01T06:18:07.439Z,12.00
2023-01-01T06:18:40.657Z,12.00
2023-01-01T06:19:12.449Z,12.00
2023-01-01T06:19:44.272Z,12.10
2023-01-01T06:20:17.349Z,12.10
2023-01-01T06:20:49.149Z,12.10
2023-01-01T06:21:23.738Z,12.10
2023-01-01T06:21:56.524Z,12.10
2023-01-01T06:22:28.312Z,12.10
2023-01-01T06:23:00.088Z,12.10
2023-01-01T06:23:32.886Z,12.20
2023-01-01T06:24:05.608Z,12.20
2023-01-01T06:24:39.247Z,12.20
2023-01-01T06:25:12.854Z,12.20
2023-01-01T06:25:44.829Z,12.20
2023-01-01T06:26:18.470Z,12.30
2023-01-01T06:26:51.267Z,12.30
2023-01-01T06:27:23.112Z,12.30
2023-01-01T06:27:54.991Z,12.30
2023-01-01T06:28:26.813Z,12.30
2023-01-01T06:29:00.787Z,12.30
2023-01-01T06:29:32.656Z,12.30
2023-01-01T06:30:05.830Z,12.30
2023-01-01T06:30:38.830Z,12.40
2023-01-01T06:31:13.827Z,12.40
2023-01-01T06:31:45.748Z,12.40
2023-01-01T06:32:18.521Z,12.40
2023-01-01T06:32:50.301Z,12.40
2023-01-01T06:33:23.420Z,12.40
2023-01-01T06:33:56.511Z,12.40
2023-01-01T06:34:28.379Z,12.50
2023-01-01T06:35:00.188Z,12.50
2023-01-01T06:35:33.001Z,12.60
2023-01-01T06:36:06.819Z,12.50
2023-01-01T06:36:39.720Z,12.60
2023-01-01T06:37:11.581Z,12.60
2023-01-01T06:37:43.466Z,12.60
2023-01-01T06:38:16.241Z,12.60
2023-01-01T06:38:51.115Z,12.60
2023-01-01T06:39:23.888Z,12.60
2023-01-01T06:39:55.717Z,12.60
2023-01-01T06:40:27.563Z,12.70
2023-01-01T06:41:01.632Z,12.70
2023-01-01T06:41:33.474Z,12.70
2023-01-01T06:42:05.426Z,12.70
2023-01-01T06:42:38.168Z,12.70
2023-01-01T06:43:09.968Z,12.70
2023-01-01T06:43:42.419Z,12.70
2023-01-01T06:44:15.240Z,12.70
2023-01-01T06:44:47.076Z,12.80
2023-01-01T06:45:18.875Z,12.80
2023-01-01T06:46:01.325Z,12.80
2023-01-01T06:46:34.714Z,12.80
2023-01-01T06:47:07.662Z,12.80
2023-01-01T06:47:39.649Z,12.80
2023-01-01T06:48:11.470Z,12.80
2023-01-01T06:48:46.585Z,12.80
2023-01-01T06:49:18.387Z,12.80
2023-01-01T06:49:51.164Z,12.80
2023-01-01T06:50:22.954Z,12.80
2023-01-01T06:50:54.769Z,12.80
2023-01-01T06:51:29.782Z,12.80
2023-01-01T06:52:01.648Z,12.90
2023-01-01T06:52:34.481Z,12.80
2023-01-01T06:53:06.280Z,12.90
2023-01-01T06:53:38.434Z,12.80
2023-01-01T06:54:11.965Z,12.80
2023-01-01T06:54:43.728Z,12.80
2023-01-01T06:55:15.624Z,12.80
2023-01-01T06:55:53.406Z,12.80
2023-01-01T06:56:31.200Z,12.80
2023-01-01T06:57:03.133Z,12.90
2023-01-01T06:57:34.973Z,12.90
2023-01-01T06:58:09.782Z,12.90
2023-01-01T06:58:41.764Z,12.90
2023-01-01T06:59:13.549Z,12.90
2023-01-01T06:59:46.376Z,12.90
2023-01-01T07:00:18.348Z,13.00
2023-01-01T07:00:50.170Z,12.90
2023-01-01T07:01:25.196Z,12.90
2023-01-01T07:01:57.238Z,12.90
2023-01-01T07:02:30.253Z,13.00
2023-01-01T07:03:02.431Z,13.00
2023-01-01T07:03:34.748Z,12.90
2023-01-01T07:04:11.959Z,13.00
2023-01-01T07:04:43.742Z,13.00
2023-01-01T07:05:15.618Z,13.00
2023-01-01T07:05:48.362Z,12.90
2023-01-01T07:06:20.779Z,13.00
2023-01-01T07:06:53.545Z,12.90
2023-01-01T07:07:25.540Z,13.00
2023-01-01T07:07:58.118Z,13.00
2023-01-01T07:08:29.986Z,12.90
2023-01-01T07:09:03.137Z,12.90
2023-01-01T07:09:34.946Z,12.90
2023-01-01T07:10:08.836Z,12.90
2023-01-01T07:10:40.626Z,12.90
2023-01-01T07:11:12.464Z,12.80
2023-01-01T07:11:45.234Z,12.80
2023-01-01T07:12:17.050Z,12.90
2023-01-01T07:12:48.873Z,12.90
2023-01-01T07:13:21.648Z,12.80
2023-01-01T07:13:53.563Z,12.90
2023-01-01T07:14:26.389Z,12.80
2023-01-01T07:14:58.192Z,12.80
2023-01-01T07:15:31.464Z,12.80
2023-01-01T07:16:10.217Z,12.80
2023-01-01T07:16:44.387Z,12.80
2023-01-01T07:17:16.254Z,12.80
2023-01-01T07:17:48.989Z,12.80
2023-01-01T07:18:21.862Z,12.70
2023-01-01T07:18:55.000Z,12.70
2023-01-01T07:19:28.170Z,12.70
2023-01-01T07:20:00.997Z,12.70
2023-01-01T07:20:32.821Z,12.70
2023-01-01T07:21:05.751Z,12.70
2023-01-01T07:21:43.297Z,12.60
2023-01-01T07:22:15.129Z,12.60
2023-01-01T07:22:47.008Z,12.60
2023-01-01T07:23:19.764Z,12.60
2023-01-01T07:23:51.546Z,12.60
2023-01-01T07:24:24.294Z,12.60
2023-01-01T07:24:56.076Z,12.50
2023-01-01T07:25:28.074Z,12.50
2023-01-01T07:26:00.921Z,12.60